Time;durP1;ratioP1;P1;durP2;ratioP2;P2;SDS_P1;SDS_P2;PMS_P1;PMS_P2;Temp;Humidity;BMP_temperature;BMP_pressure;BME280_temperature;BME280_humidity;BME280_pressure;Samples;Min_cycle;Max_cycle;Signal;HPM_P1;HPM_P2
2023/04/03 00:00:31;;;;;;;;;;;;;;;;;;;;;
2023/04/03 00:03:33;;;;;;;6.80;1.40;;;;;;;;;;107212;1269;25217;-81
2023/04/03 00:06:06;;;;;;;8.80;1.60;;;;;;;;;;107300;1273;25302;-82
2023/04/03 00:09:15;;;;;;;8.60;1.20;;;;;;;;;;107167;1258;22542;-82
2023/04/03 00:11:43;;;;;;;7.30;1.60;;;;;;;;;;107218;1273;22645;-78
2023/04/03 00:14:30;;;;;;;7.30;1.00;;;;;;;;;;107188;1273;24169;-83
2023/04/03 00:17:49;;;;;;;6.10;1.20;;;;;;;;;;107232;1273;24225;-79
2023/04/03 00:20:31;;;;;;;7.00;1.40;;;;;;;;;;107177;1257;24247;-82
2023/04/03 00:23:04;;;;;;;7.30;1.70;;;;;;;;;;107209;1273;22562;-82
2023/04/03 00:26:43;;;;;;;9.40;1.30;;;;;;;;;;106701;1279;23411;-79
2023/04/03 00:33:10;;;;;;;;;;;;;;;;;;;;;
2023/04/03 00:36:15;;;;;;;8.20;1.70;;;;;;;;;;106005;1289;22549;-80
2023/04/03 00:42:35;;;;;;;6.40;1.20;;;;;;;;;;105959;1289;22618;-82
2023/04/03 00:45:48;;;;;;;6.40;1.40;;;;;;;;;;105953;1291;22510;-80
2023/04/03 00:48:45;;;;;;;8.70;1.60;;;;;;;;;;105793;1291;22540;-82
2023/04/03 00:51:44;;;;;;;6.90;1.40;;;;;;;;;;105777;1291;24393;-83
2023/04/03 00:54:16;;;;;;;8.40;1.50;;;;;;;;;;105898;1291;22555;-85
2023/04/03 00:56:44;;;;;;;9.00;1.40;;;;;;;;;;105942;1291;22552;-81
2023/04/03 00:59:16;;;;;;;9.00;1.60;;;;;;;;;;105940;1291;22781;-84
2023/04/03 01:02:21;;;;;;;;;;;;;;;;;;;;;
2023/04/03 01:05:24;;;;;;;7.00;1.50;;;;;;;;;;106498;1283;22528;-85
2023/04/03 01:08:42;;;;;;;8.30;1.70;;;;;;;;;;106366;1285;22659;-86
2023/04/03 01:11:24;;;;;;;10.00;1.90;;;;;;;;;;106346;1277;22527;-79
2023/04/03 01:17:11;;;;;;;10.40;1.80;;;;;;;;;;106067;1290;24595;-83
2023/04/03 01:20:07;;;;;;;6.80;1.60;;;;;;;;;;106106;1290;22551;-81
2023/04/03 01:22:38;;;;;;;9.00;1.80;;;;;;;;;;106210;1273;22540;-83
2023/04/03 01:28:49;;;;;;;8.70;1.70;;;;;;;;;;105996;1288;22542;-85
2023/04/03 01:31:31;;;;;;;9.80;1.80;;;;;;;;;;106057;1271;24422;-79
2023/04/03 01:34:02;;;;;;;8.80;1.60;;;;;;;;;;105846;1289;22593;-82
2023/04/03 01:40:02;;;;;;;;;;;;;;;;;;;;;
2023/04/03 01:43:31;;;;;;;8.60;1.80;;;;;;;;;;105735;1294;24385;-83
2023/04/03 01:47:07;;;;;;;9.40;1.40;;;;;;;;;;105885;1283;24268;-80
2023/04/03 01:49:16;;;;;;;8.00;1.60;;;;;;;;;;105750;1294;25402;-82
2023/04/03 01:52:36;;;;;;;10.00;1.60;;;;;;;;;;105707;1292;25371;-80
2023/04/03 01:59:11;;;;;;;8.70;1.70;;;;;;;;;;105584;1298;22696;-81
2023/04/03 02:01:58;;;;;;;7.10;1.60;;;;;;;;;;105362;1279;24221;-82
2023/04/03 02:04:50;;;;;;;7.10;1.30;;;;;;;;;;105346;1292;23901;-81
2023/04/03 02:10:53;;;;;;;7.50;1.20;;;;;;;;;;105990;1289;25424;-80
2023/04/03 02:16:57;;;;;;;6.90;1.30;;;;;;;;;;105450;1295;22688;-80
2023/04/03 02:23:36;;;;;;;8.10;1.60;;;;;;;;;;105595;1279;22545;-84
2023/04/03 02:26:53;;;;;;;8.30;1.50;;;;;;;;;;105790;1286;22536;-81
2023/04/03 02:30:23;;;;;;;7.30;1.50;;;;;;;;;;106055;1287;22614;-84
2023/04/03 02:33:38;;;;;;;6.60;1.40;;;;;;;;;;105712;1276;22593;-86
2023/04/03 02:36:23;;;;;;;7.80;1.60;;;;;;;;;;105761;1293;22601;-84
2023/04/03 02:39:03;;;;;;;7.30;1.40;;;;;;;;;;105529;1292;25465;-84
2023/04/03 02:48:59;;;;;;;;;;;;;;;;;;;;;
2023/04/03 02:52:06;;;;;;;;;;;;;;;;;;;;;
2023/04/03 02:55:18;;;;;;;;;;;;;;;;;;;;;
2023/04/03 02:58:45;;;;;;;7.80;1.50;;;;;;;;;;105639;1297;24227;-81
2023/04/03 03:01:26;;;;;;;6.50;1.40;;;;;;;;;;105645;1296;22754;-81
2023/04/03 03:04:12;;;;;;;;;;;;;;;;;;;;;
2023/04/03 03:07:06;;;;;;;12.50;1.50;;;;;;;;;;105537;1296;22539;-84
2023/04/03 03:09:52;;;;;;;;;;;;;;;;;;;;;
2023/04/03 03:13:26;;;;;;;;;;;;;;;;;;;;;
2023/04/03 03:16:53;;;;;;;;;;;;;;;;;;;;;
2023/04/03 03:20:00;;;;;;;6.40;1.20;;;;;;;;;;105542;1296;23924;-82
2023/04/03 03:22:54;;;;;;;7.60;1.80;;;;;;;;;;105588;1296;24655;-84
2023/04/03 03:26:06;;;;;;;;;;;;;;;;;;;;;
2023/04/03 03:29:24;;;;;;;6.30;1.70;;;;;;;;;;105585;1296;22664;-82
2023/04/03 03:32:33;;;;;;;8.50;2.70;;;;;;;;;;105334;1296;22664;-84
2023/04/03 03:42:17;;;;;;;9.50;1.50;;;;;;;;;;105951;1290;24363;-84
2023/04/03 03:44:51;;;;;;;7.50;1.50;;;;;;;;;;106115;1286;25297;-81
2023/04/03 03:47:42;;;;;;;5.20;1.20;;;;;;;;;;106634;1275;22479;-84
2023/04/03 03:51:22;;;;;;;8.80;1.40;;;;;;;;;;107022;1275;24213;-80
2023/04/03 03:54:07;;;;;;;7.20;1.40;;;;;;;;;;107253;1274;22528;-84
2023/04/03 03:57:04;;;;;;;9.20;1.20;;;;;;;;;;107199;1274;22517;-82
2023/04/03 03:59:33;;;;;;;6.90;1.20;;;;;;;;;;107212;1274;22607;-84
2023/04/03 04:02:26;;;;;;;9.30;1.60;;;;;;;;;;107238;1275;22629;-81
2023/04/03 04:09:02;;;;;;;;;;;;;;;;;;;;;
2023/04/03 04:11:44;;;;;;;7.40;1.30;;;;;;;;;;106419;1283;24224;-86
2023/04/03 04:14:15;;;;;;;6.80;1.10;;;;;;;;;;106477;1283;22535;-85
2023/04/03 04:17:20;;;;;;;;;;;;;;;;;;;;;
2023/04/03 04:20:23;;;;;;;8.10;1.50;;;;;;;;;;106273;1284;24484;-81
2023/04/03 04:23:18;;;;;;;9.60;1.60;;;;;;;;;;106101;1287;22665;-81
2023/04/03 04:25:57;;;;;;;9.80;1.70;;;;;;;;;;106155;1285;25559;-82
2023/04/03 04:28:34;;;;;;;12.50;1.60;;;;;;;;;;106107;1273;24214;-80
2023/04/03 04:31:20;;;;;;;;;;;;;;;;;;;;;
2023/04/03 04:35:06;;;;;;;8.90;1.80;;;;;;;;;;105797;1276;24280;-81
2023/04/03 04:38:10;;;;;;;;;;;;;;;;;;;;;
2023/04/03 04:40:41;;;;;;;11.20;2.10;;;;;;;;;;105864;1276;22545;-85
2023/04/03 04:43:19;;;;;;;9.30;1.80;;;;;;;;;;105832;1294;25384;-83
2023/04/03 04:49:49;;;;;;;;;;;;;;;;;;;;;
2023/04/03 04:52:43;;;;;;;7.40;1.50;;;;;;;;;;106308;1283;24549;-84
2023/04/03 04:55:25;;;;;;;10.10;1.90;;;;;;;;;;106318;1285;22609;-84
2023/04/03 04:58:10;;;;;;;10.40;2.00;;;;;;;;;;106205;1285;25369;-80
2023/04/03 05:00:46;;;;;;;13.60;2.20;;;;;;;;;;106173;1285;22516;-81
2023/04/03 05:03:36;;;;;;;7.20;1.40;;;;;;;;;;106371;1283;23913;-81
2023/04/03 05:06:34;;;;;;;10.00;1.50;;;;;;;;;;106708;1280;23869;-80
2023/04/03 05:12:45;;;;;;;11.00;2.60;;;;;;;;;;106787;1280;22534;-86
2023/04/03 05:15:23;;;;;;;8.50;2.00;;;;;;;;;;106570;1280;22583;-87
2023/04/03 05:18:59;;;;;;;9.20;1.80;;;;;;;;;;106502;1280;22526;-84
2023/04/03 05:21:33;;;;;;;;;;;;;;;;;;;;;
2023/04/03 05:24:25;;;;;;;9.20;1.40;;;;;;;;;;106788;1273;23903;-80
2023/04/03 05:27:19;;;;;;;5.70;1.20;;;;;;;;;;107150;1274;22520;-84
2023/04/03 05:30:14;;;;;;;10.60;2.70;;;;;;;;;;107057;1274;23102;-85
2023/04/03 05:32:49;;;;;;;9.40;2.00;;;;;;;;;;107333;1272;22525;-84
2023/04/03 05:35:32;;;;;;;8.00;1.50;;;;;;;;;;106978;1274;25444;-82
2023/04/03 05:38:03;;;;;;;8.90;2.10;;;;;;;;;;107030;1274;22514;-80
2023/04/03 05:40:34;;;;;;;6.70;1.70;;;;;;;;;;107053;1273;22515;-84
2023/04/03 05:43:52;;;;;;;11.30;2.60;;;;;;;;;;106949;1264;22483;-84
2023/04/03 05:47:08;;;;;;;6.00;1.40;;;;;;;;;;106559;1274;22671;-80
2023/04/03 05:49:57;;;;;;;8.70;1.40;;;;;;;;;;106626;1281;24183;-88
2023/04/03 05:52:52;;;;;;;10.60;1.90;;;;;;;;;;106139;1269;23262;-81
2023/04/03 05:55:56;;;;;;;;;;;;;;;;;;;;;
2023/04/03 05:59:09;;;;;;;;;;;;;;;;;;;;;
2023/04/03 06:05:58;;;;;;;7.40;1.50;;;;;;;;;;106189;1286;22764;-80
2023/04/03 06:08:22;;;;;;;9.50;2.10;;;;;;;;;;105911;1292;25556;-84
2023/04/03 06:11:22;;;;;;;;;;;;;;;;;;;;;
2023/04/03 06:15:02;;;;;;;9.80;1.60;;;;;;;;;;105546;1280;22524;-79
2023/04/03 06:17:29;;;;;;;4.30;1.10;;;;;;;;;;105614;1296;22544;-84
2023/04/03 06:20:12;;;;;;;8.20;1.20;;;;;;;;;;105639;1288;22603;-82
2023/04/03 06:22:57;;;;;;;;;;;;;;;;;;;;;
2023/04/03 06:25:34;;;;;;;9.20;1.60;;;;;;;;;;106083;1288;22526;-86
2023/04/03 06:28:19;;;;;;;7.50;1.30;;;;;;;;;;106084;1288;23336;-83
2023/04/03 06:31:25;;;;;;;;;;;;;;;;;;;;;
2023/04/03 06:33:57;;;;;;;9.50;1.80;;;;;;;;;;106138;1287;24405;-84
2023/04/03 06:36:36;;;;;;;7.60;1.40;;;;;;;;;;106097;1287;25339;-83
2023/04/03 06:39:22;;;;;;;5.60;1.10;;;;;;;;;;106136;1289;22545;-81
2023/04/03 06:42:01;;;;;;;4.60;0.90;;;;;;;;;;106009;1288;25478;-81
2023/04/03 06:44:49;;;;;;;5.70;1.40;;;;;;;;;;106273;1270;22526;-79
2023/04/03 06:47:16;;;;;;;10.80;1.50;;;;;;;;;;107201;1274;25262;-80
2023/04/03 06:50:00;;;;;;;9.90;1.70;;;;;;;;;;106996;1274;22630;-81
2023/04/03 06:52:54;;;;;;;9.90;1.60;;;;;;;;;;107195;1274;25341;-79
2023/04/03 06:55:40;;;;;;;7.60;2.00;;;;;;;;;;107133;1274;24544;-82
2023/04/03 06:58:28;;;;;;;8.30;1.50;;;;;;;;;;107158;1274;22512;-84
2023/04/03 07:01:15;;;;;;;9.50;1.60;;;;;;;;;;107134;1274;22550;-82
2023/04/03 07:04:00;;;;;;;;;;;;;;;;;;;;;
2023/04/03 07:07:08;;;;;;;;;;;;;;;;;;;;;
2023/04/03 07:09:59;;;;;;;9.00;1.70;;;;;;;;;;106991;1274;25287;-82
2023/04/03 07:12:31;;;;;;;16.10;1.90;;;;;;;;;;107255;1274;24518;-84
2023/04/03 07:15:14;;;;;;;11.20;2.00;;;;;;;;;;107043;1259;22520;-82
2023/04/03 07:18:01;;;;;;;7.10;1.40;;;;;;;;;;106946;1274;22536;-82
2023/04/03 07:20:31;;;;;;;10.20;1.50;;;;;;;;;;106961;1274;25213;-80
2023/04/03 07:23:09;;;;;;;10.30;2.00;;;;;;;;;;107118;1274;24249;-83
2023/04/03 07:25:48;;;;;;;10.00;1.60;;;;;;;;;;107113;1267;25364;-81
2023/04/03 07:28:18;;;;;;;9.40;1.70;;;;;;;;;;106967;1274;22716;-85
2023/04/03 07:31:17;;;;;;;9.50;1.60;;;;;;;;;;107107;1274;22528;-78
2023/04/03 07:33:51;;;;;;;7.90;1.50;;;;;;;;;;107125;1274;24250;-79
2023/04/03 07:37:06;;;;;;;12.60;1.80;;;;;;;;;;107074;1257;24202;-82
2023/04/03 07:39:48;;;;;;;7.30;1.40;;;;;;;;;;106028;1290;22546;-80
2023/04/03 07:42:20;;;;;;;9.70;1.60;;;;;;;;;;106003;1290;24247;-81
2023/04/03 07:45:08;;;;;;;7.40;1.40;;;;;;;;;;105988;1271;22537;-80
2023/04/03 07:47:55;;;;;;;10.30;1.90;;;;;;;;;;105977;1289;25325;-83
2023/04/03 07:50:27;;;;;;;9.60;1.80;;;;;;;;;;105991;1289;24340;-84
2023/04/03 07:53:25;;;;;;;8.90;1.60;;;;;;;;;;105963;1289;22988;-85
2023/04/03 07:55:55;;;;;;;9.10;1.70;;;;;;;;;;106018;1271;25363;-82
2023/04/03 07:58:25;;;;;;;9.70;1.90;;;;;;;;;;106086;1289;24266;-83
2023/04/03 08:00:58;;;;;;;9.50;1.90;;;;;;;;;;105924;1279;24475;-79
2023/04/03 08:03:24;;;;;;;7.20;1.80;;;;;;;;;;105906;1289;21764;-84
2023/04/03 08:06:03;;;;;;;6.90;1.90;;;;;;;;;;105877;1289;24261;-83
2023/04/03 08:08:39;;;;;;;6.20;1.20;;;;;;;;;;105999;1289;24342;-80
2023/04/03 08:11:07;;;;;;;6.10;1.30;;;;;;;;;;106082;1286;22589;-78
2023/04/03 08:13:41;;;;;;;6.80;1.60;;;;;;;;;;106291;1286;25448;-80
2023/04/03 08:16:28;;;;;;;8.30;1.50;;;;;;;;;;106238;1277;22555;-79
2023/04/03 08:19:07;;;;;;;7.10;1.40;;;;;;;;;;107018;1275;24207;-75
2023/04/03 08:21:41;;;;;;;5.50;1.10;;;;;;;;;;107122;1265;23264;-84
2023/04/03 08:24:13;;;;;;;7.50;1.30;;;;;;;;;;107126;1275;22558;-79
2023/04/03 08:27:06;;;;;;;9.20;1.30;;;;;;;;;;107023;1274;24214;-84
2023/04/03 08:29:48;;;;;;;9.20;2.00;;;;;;;;;;107167;1273;25227;-82
2023/04/03 08:32:15;;;;;;;6.40;1.30;;;;;;;;;;107198;1273;22553;-80
2023/04/03 08:34:46;;;;;;;9.50;1.40;;;;;;;;;;107211;1273;25358;-81
2023/04/03 08:37:13;;;;;;;6.40;1.30;;;;;;;;;;107304;1272;24306;-82
2023/04/03 08:39:42;;;;;;;8.30;1.60;;;;;;;;;;107001;1273;25303;-78
2023/04/03 08:42:22;;;;;;;8.20;1.60;;;;;;;;;;107260;1273;23885;-84
2023/04/03 08:45:02;;;;;;;8.20;1.60;;;;;;;;;;107009;1273;22534;-80
2023/04/03 08:47:59;;;;;;;6.30;1.30;;;;;;;;;;106921;1274;25354;-79
2023/04/03 08:50:31;;;;;;;6.60;1.20;;;;;;;;;;107148;1274;25342;-82
2023/04/03 08:52:59;;;;;;;6.80;1.50;;;;;;;;;;106903;1274;22993;-86
2023/04/03 08:55:31;;;;;;;8.20;1.50;;;;;;;;;;106929;1274;22510;-83
2023/04/03 08:58:07;;;;;;;8.20;1.50;;;;;;;;;;107227;1267;23122;-80
2023/04/03 09:01:14;;;;;;;9.40;1.70;;;;;;;;;;107165;1273;22521;-85
2023/04/03 09:03:44;;;;;;;9.60;2.00;;;;;;;;;;107185;1273;22563;-83
2023/04/03 09:06:36;;;;;;;;;;;;;;;;;;;;;
2023/04/03 09:09:26;;;;;;;7.40;1.70;;;;;;;;;;107335;1273;25284;-78
2023/04/03 09:12:31;;;;;;;7.40;1.80;;;;;;;;;;107174;1273;26461;-83
2023/04/03 09:15:01;;;;;;;9.00;1.80;;;;;;;;;;107309;1273;24264;-79
2023/04/03 09:17:28;;;;;;;11.40;2.70;;;;;;;;;;107162;1256;26125;-79
2023/04/03 09:20:08;;;;;;;10.20;2.50;;;;;;;;;;107314;1273;22639;-83
2023/04/03 09:22:37;;;;;;;8.50;1.40;;;;;;;;;;107268;1273;22484;-79
2023/04/03 09:25:12;;;;;;;7.70;1.50;;;;;;;;;;107301;1273;22532;-80
2023/04/03 09:27:50;;;;;;;8.70;1.80;;;;;;;;;;107110;1266;22538;-82
2023/04/03 09:30:21;;;;;;;9.80;1.60;;;;;;;;;;107207;1273;22521;-81
2023/04/03 09:32:55;;;;;;;4.80;1.20;;;;;;;;;;107024;1273;25255;-73
2023/04/03 09:35:27;;;;;;;6.10;1.10;;;;;;;;;;107237;1269;25312;-83
2023/04/03 09:37:59;;;;;;;6.30;1.10;;;;;;;;;;107244;1257;22524;-81
2023/04/03 09:40:32;;;;;;;8.40;1.20;;;;;;;;;;107052;1260;22527;-82
2023/04/03 09:43:22;;;;;;;12.60;1.70;;;;;;;;;;107197;1273;23105;-79
2023/04/03 09:45:52;;;;;;;8.80;1.30;;;;;;;;;;107245;1273;22521;-85
2023/04/03 09:48:36;;;;;;;5.40;1.00;;;;;;;;;;107115;1256;26437;-80
2023/04/03 09:51:04;;;;;;;5.20;1.20;;;;;;;;;;107129;1273;23948;-79
2023/04/03 09:53:39;;;;;;;4.20;0.90;;;;;;;;;;107244;1273;25377;-82
2023/04/03 09:56:20;;;;;;;6.00;1.00;;;;;;;;;;107192;1273;22517;-82
2023/04/03 09:58:51;;;;;;;6.80;1.40;;;;;;;;;;107218;1256;25274;-81
2023/04/03 10:01:38;;;;;;;10.60;1.20;;;;;;;;;;107266;1273;25272;-78
2023/04/03 10:04:15;;;;;;;10.10;1.20;;;;;;;;;;107211;1273;23112;-84
2023/04/03 10:06:46;;;;;;;5.10;1.00;;;;;;;;;;107212;1273;24431;-81
2023/04/03 10:09:20;;;;;;;6.00;1.10;;;;;;;;;;107061;1258;22622;-83
2023/04/03 10:12:14;;;;;;;6.80;1.50;;;;;;;;;;107203;1273;24173;-79
2023/04/03 10:14:54;;;;;;;6.40;1.30;;;;;;;;;;106969;1273;24190;-85
2023/04/03 10:18:05;;;;;;;9.20;1.20;;;;;;;;;;107153;1273;24250;-80
2023/04/03 10:21:05;;;;;;;8.50;2.40;;;;;;;;;;107215;1260;22521;-79
2023/04/03 10:23:46;;;;;;;5.90;1.90;;;;;;;;;;107205;1273;23377;-85
2023/04/03 10:26:22;;;;;;;8.60;2.50;;;;;;;;;;107264;1273;22558;-84
2023/04/03 10:29:02;;;;;;;7.70;1.50;;;;;;;;;;107218;1252;25316;-85
2023/04/03 10:31:57;;;;;;;7.50;2.40;;;;;;;;;;107260;1267;22584;-79
2023/04/03 10:34:40;;;;;;;7.60;3.50;;;;;;;;;;107074;1273;22524;-82
2023/04/03 10:37:19;;;;;;;43.20;18.40;;;;;;;;;;107433;1254;22544;-81
2023/04/03 10:40:55;;;;;;;22.10;8.50;;;;;;;;;;107108;1266;22526;-84
2023/04/03 10:43:17;;;;;;;7.70;3.60;;;;;;;;;;107195;1273;22480;-85
2023/04/03 10:45:49;;;;;;;24.20;13.90;;;;;;;;;;107307;1273;25337;-84
2023/04/03 10:48:22;;;;;;;19.80;13.60;;;;;;;;;;107245;1273;22519;-81
2023/04/03 10:51:18;;;;;;;12.60;6.80;;;;;;;;;;107440;1273;25181;-84
2023/04/03 10:53:52;;;;;;;9.40;4.30;;;;;;;;;;107045;1273;24182;-85
2023/04/03 10:56:21;;;;;;;48.60;29.60;;;;;;;;;;107165;1273;22884;-81
2023/04/03 10:58:50;;;;;;;112.30;48.90;;;;;;;;;;107207;1273;22772;-78
2023/04/03 11:01:37;;;;;;;60.80;20.10;;;;;;;;;;107035;1259;24361;-81
2023/04/03 11:04:08;;;;;;;15.60;5.00;;;;;;;;;;107198;1273;25217;-82
2023/04/03 11:06:40;;;;;;;50.40;20.20;;;;;;;;;;107319;1273;25280;-79
2023/04/03 11:09:31;;;;;;;7.00;1.60;;;;;;;;;;107155;1257;25172;-83
2023/04/03 11:12:12;;;;;;;35.10;16.80;;;;;;;;;;107239;1273;24374;-79
2023/04/03 11:14:54;;;;;;;14.80;4.60;;;;;;;;;;107219;1273;22527;-83
2023/04/03 11:17:26;;;;;;;11.00;2.70;;;;;;;;;;107229;1273;23119;-81
2023/04/03 11:20:00;;;;;;;13.40;3.90;;;;;;;;;;107300;1254;22813;-82
2023/04/03 11:22:36;;;;;;;11.20;3.40;;;;;;;;;;107251;1273;22518;-81
2023/04/03 11:25:06;;;;;;;20.40;8.50;;;;;;;;;;107260;1273;22740;-78
2023/04/03 11:27:45;;;;;;;16.20;7.30;;;;;;;;;;107147;1273;22524;-80
2023/04/03 11:30:23;;;;;;;10.70;4.10;;;;;;;;;;107108;1263;23952;-81
2023/04/03 11:33:09;;;;;;;8.00;1.50;;;;;;;;;;107180;1273;22528;-79
2023/04/03 11:35:42;;;;;;;19.90;8.10;;;;;;;;;;107261;1273;23866;-81
2023/04/03 11:38:40;;;;;;;20.20;8.90;;;;;;;;;;107223;1273;22704;-82
2023/04/03 11:41:08;;;;;;;12.80;5.60;;;;;;;;;;107251;1254;22521;-81
2023/04/03 11:43:40;;;;;;;12.00;3.90;;;;;;;;;;103265;1270;5413116;-80
2023/04/03 11:46:29;;;;;;;14.50;6.30;;;;;;;;;;107318;1270;25396;-81
2023/04/03 11:49:59;;;;;;;10.50;4.40;;;;;;;;;;107319;1273;22728;-84
2023/04/03 11:52:58;;;;;;;11.10;3.10;;;;;;;;;;107190;1273;25353;-84
2023/04/03 11:55:33;;;;;;;12.60;4.30;;;;;;;;;;107284;1273;22543;-84
2023/04/03 11:58:01;;;;;;;9.60;2.90;;;;;;;;;;107351;1250;24180;-79
2023/04/03 12:01:27;;;;;;;9.10;3.20;;;;;;;;;;107273;1251;25331;-81
2023/04/03 12:03:41;;;;;;;7.50;2.30;;;;;;;;;;107409;1272;22697;-82
2023/04/03 12:06:17;;;;;;;9.10;2.80;;;;;;;;;;107238;1266;24256;-81
2023/04/03 12:08:46;;;;;;;10.80;3.20;;;;;;;;;;107269;1270;23855;-83
2023/04/03 12:11:16;;;;;;;9.10;3.00;;;;;;;;;;107244;1254;25360;-81
2023/04/03 12:14:11;;;;;;;7.60;2.10;;;;;;;;;;107235;1266;24364;-81
2023/04/03 12:16:47;;;;;;;7.40;1.70;;;;;;;;;;107152;1272;22507;-78
2023/04/03 12:19:20;;;;;;;6.50;1.90;;;;;;;;;;107195;1272;24196;-80
2023/04/03 12:21:58;;;;;;;7.70;2.40;;;;;;;;;;107325;1257;26593;-80
2023/04/03 12:24:38;;;;;;;9.70;3.20;;;;;;;;;;107223;1270;22559;-80
2023/04/03 12:27:28;;;;;;;7.00;1.80;;;;;;;;;;107007;1270;23315;-78
2023/04/03 12:30:01;;;;;;;11.50;4.40;;;;;;;;;;107337;1272;26451;-81
2023/04/03 12:33:00;;;;;;;8.80;2.10;;;;;;;;;;107149;1257;22599;-78
2023/04/03 12:35:40;;;;;;;9.60;2.00;;;;;;;;;;107008;1273;25307;-82
2023/04/03 12:38:13;;;;;;;7.80;1.90;;;;;;;;;;107019;1254;22523;-75
2023/04/03 12:41:07;;;;;;;14.30;5.60;;;;;;;;;;107246;1267;22518;-80
2023/04/03 12:43:52;;;;;;;7.80;2.00;;;;;;;;;;107342;1268;23198;-81
2023/04/03 12:46:21;;;;;;;12.20;2.90;;;;;;;;;;107181;1273;22622;-78
2023/04/03 12:48:51;;;;;;;10.90;2.80;;;;;;;;;;107257;1270;24156;-78
2023/04/03 12:51:23;;;;;;;12.80;3.90;;;;;;;;;;107351;1273;22523;-78
2023/04/03 12:54:00;;;;;;;11.90;3.30;;;;;;;;;;107508;1255;24820;-78
2023/04/03 12:56:34;;;;;;;8.80;2.20;;;;;;;;;;107321;1273;24191;-78
2023/04/03 12:59:23;;;;;;;10.60;1.80;;;;;;;;;;106989;1266;22552;-79
2023/04/03 13:02:08;;;;;;;;;;;;;;;;;;;;;
2023/04/03 13:04:40;;;;;;;12.40;4.40;;;;;;;;;;106957;1273;22533;-79
2023/04/03 13:07:18;;;;;;;12.90;4.90;;;;;;;;;;107184;1273;25501;-79
2023/04/03 13:10:00;;;;;;;54.10;28.90;;;;;;;;;;107345;1269;23860;-81
2023/04/03 13:12:44;;;;;;;40.10;23.90;;;;;;;;;;107223;1266;22533;-80
2023/04/03 13:15:17;;;;;;;27.70;14.90;;;;;;;;;;107084;1270;24332;-78
2023/04/03 13:17:49;;;;;;;11.00;4.30;;;;;;;;;;107141;1272;22524;-79
2023/04/03 13:20:29;;;;;;;9.10;2.60;;;;;;;;;;107015;1268;22540;-79
2023/04/03 13:22:59;;;;;;;17.50;7.80;;;;;;;;;;106939;1267;22739;-82
2023/04/03 13:28:17;;;;;;;11.60;3.90;;;;;;;;;;107111;1267;25233;-81
2023/04/03 13:30:56;;;;;;;7.60;2.40;;;;;;;;;;106959;1271;24311;-79
2023/04/03 13:33:27;;;;;;;6.60;1.70;;;;;;;;;;107084;1257;22612;-81
2023/04/03 13:36:01;;;;;;;8.90;2.10;;;;;;;;;;107026;1273;22639;-79
2023/04/03 13:38:32;;;;;;;7.80;1.90;;;;;;;;;;107089;1253;23217;-81
2023/04/03 13:41:02;;;;;;;7.50;1.90;;;;;;;;;;107153;1267;22559;-78
2023/04/03 13:43:40;;;;;;;7.80;1.90;;;;;;;;;;107239;1259;23883;-79
2023/04/03 13:46:19;;;;;;;27.90;7.20;;;;;;;;;;107390;1266;22659;-78
2023/04/03 13:48:56;;;;;;;19.40;4.70;;;;;;;;;;107191;1257;22580;-79
2023/04/03 13:51:38;;;;;;;6.60;1.60;;;;;;;;;;107175;1268;22549;-80
2023/04/03 13:54:25;;;;;;;7.20;2.30;;;;;;;;;;106911;1256;22520;-79
2023/04/03 13:57:00;;;;;;;8.40;2.60;;;;;;;;;;107160;1267;22999;-79
2023/04/03 13:59:30;;;;;;;6.00;1.70;;;;;;;;;;107144;1267;25462;-80
2023/04/03 14:02:03;;;;;;;7.10;1.90;;;;;;;;;;106929;1273;22646;-78
2023/04/03 14:04:34;;;;;;;7.90;2.50;;;;;;;;;;110885;1253;23081;-77
2023/04/03 14:07:01;;;;;;;8.00;2.20;;;;;;;;;;110609;1273;22411;-78
2023/04/03 14:09:31;;;;;;;8.10;3.10;;;;;;;;;;110612;1273;22112;-77
2023/04/03 14:12:00;;;;;;;7.50;1.60;;;;;;;;;;110611;1269;22189;-79
2023/04/03 14:14:30;;;;;;;6.80;1.80;;;;;;;;;;110740;1254;21926;-77
2023/04/03 14:16:59;;;;;;;8.00;2.10;;;;;;;;;;110669;1273;22392;-78
2023/04/03 14:19:28;;;;;;;9.10;2.70;;;;;;;;;;110692;1268;22225;-77
2023/04/03 14:21:55;;;;;;;19.10;8.20;;;;;;;;;;110677;1267;23087;-78
2023/04/03 14:24:22;;;;;;;39.20;12.90;;;;;;;;;;110721;1252;22176;-78
2023/04/03 14:26:51;;;;;;;109.70;30.10;;;;;;;;;;110678;1273;22777;-78
2023/04/03 14:29:18;;;;;;;25.50;9.00;;;;;;;;;;110649;1273;22107;-79
2023/04/03 14:31:49;;;;;;;12.20;5.30;;;;;;;;;;110663;1273;22239;-79
2023/04/03 14:34:16;;;;;;;13.70;7.50;;;;;;;;;;110691;1253;22140;-80
2023/04/03 14:36:47;;;;;;;19.70;10.30;;;;;;;;;;110686;1273;22135;-78
2023/04/03 14:39:16;;;;;;;23.40;11.60;;;;;;;;;;110659;1273;22790;-80
2023/04/03 14:41:44;;;;;;;14.80;5.10;;;;;;;;;;110658;1273;22107;-79
2023/04/03 14:44:11;;;;;;;16.60;6.50;;;;;;;;;;110524;1250;22118;-79
2023/04/03 14:46:40;;;;;;;12.30;4.00;;;;;;;;;;110633;1273;22161;-78
2023/04/03 14:49:17;;;;;;;15.10;5.10;;;;;;;;;;110831;1272;22411;-79
2023/04/03 14:51:46;;;;;;;18.20;7.20;;;;;;;;;;110660;1273;22098;-79
2023/04/03 14:54:18;;;;;;;12.90;5.60;;;;;;;;;;110668;1251;22155;-79
2023/04/03 14:56:46;;;;;;;50.10;19.40;;;;;;;;;;110634;1273;22168;-80
2023/04/03 14:59:13;;;;;;;11.50;4.80;;;;;;;;;;110831;1272;22355;-80
2023/04/03 15:01:48;;;;;;;15.50;8.20;;;;;;;;;;110601;1273;23060;-80
2023/04/03 15:04:19;;;;;;;10.40;3.60;;;;;;;;;;110786;1250;22332;-79
2023/04/03 15:06:47;;;;;;;8.30;3.20;;;;;;;;;;110604;1272;22270;-80
2023/04/03 15:09:22;;;;;;;6.90;2.40;;;;;;;;;;110506;1273;22113;-78
2023/04/03 15:11:50;;;;;;;8.00;3.80;;;;;;;;;;110605;1273;22314;-79
2023/04/03 15:14:17;;;;;;;20.60;9.90;;;;;;;;;;110658;1273;22123;-79
2023/04/03 15:16:44;;;;;;;17.90;7.30;;;;;;;;;;110669;1256;22219;-78
2023/04/03 15:19:11;;;;;;;21.70;9.40;;;;;;;;;;110650;1272;22116;-77
2023/04/03 15:21:46;;;;;;;15.70;5.50;;;;;;;;;;110663;1273;22108;-81
2023/04/03 15:24:13;;;;;;;22.40;7.80;;;;;;;;;;110745;1273;22985;-77
2023/04/03 15:26:41;;;;;;;11.40;4.00;;;;;;;;;;110881;1256;22107;-77
2023/04/03 15:29:08;;;;;;;7.80;2.50;;;;;;;;;;110640;1273;22151;-78
2023/04/03 15:31:34;;;;;;;7.90;2.30;;;;;;;;;;110590;1274;22197;-78
2023/04/03 15:34:04;;;;;;;10.90;3.20;;;;;;;;;;110638;1274;22155;-79
2023/04/03 15:36:31;;;;;;;8.20;2.50;;;;;;;;;;110866;1257;22167;-77
2023/04/03 15:38:58;;;;;;;5.90;1.90;;;;;;;;;;110509;1274;23317;-77
2023/04/03 15:41:25;;;;;;;9.80;3.70;;;;;;;;;;110464;1274;22151;-78
2023/04/03 15:43:52;;;;;;;11.20;3.90;;;;;;;;;;110524;1274;22193;-78
2023/04/03 15:46:20;;;;;;;10.60;3.50;;;;;;;;;;110780;1256;22105;-78
2023/04/03 15:48:46;;;;;;;11.90;4.30;;;;;;;;;;110648;1274;22243;-78
2023/04/03 15:51:16;;;;;;;8.60;3.00;;;;;;;;;;110617;1274;22077;-78
2023/04/03 15:53:43;;;;;;;8.40;2.90;;;;;;;;;;110591;1274;22163;-78
2023/04/03 15:56:11;;;;;;;11.90;3.60;;;;;;;;;;110756;1256;23081;-77
2023/04/03 15:58:38;;;;;;;14.50;6.30;;;;;;;;;;110651;1274;22382;-79
2023/04/03 16:01:05;;;;;;;18.40;6.20;;;;;;;;;;110652;1274;22125;-78
2023/04/03 16:03:32;;;;;;;21.90;11.00;;;;;;;;;;110648;1274;22304;-77
2023/04/03 16:06:00;;;;;;;23.90;8.30;;;;;;;;;;110665;1256;22150;-78
2023/04/03 16:08:27;;;;;;;17.10;6.20;;;;;;;;;;110530;1274;22925;-77
2023/04/03 16:10:54;;;;;;;14.50;5.50;;;;;;;;;;110649;1274;21998;-77
2023/04/03 16:13:21;;;;;;;28.00;12.00;;;;;;;;;;110595;1274;22119;-78
2023/04/03 16:15:49;;;;;;;21.10;9.90;;;;;;;;;;110614;1251;22597;-78
2023/04/03 16:18:18;;;;;;;13.50;6.40;;;;;;;;;;110552;1274;22129;-77
2023/04/03 16:20:45;;;;;;;15.40;8.80;;;;;;;;;;110590;1274;22407;-77
2023/04/03 16:23:12;;;;;;;11.50;4.70;;;;;;;;;;110554;1275;22132;-77
2023/04/03 16:25:39;;;;;;;10.30;4.10;;;;;;;;;;110566;1275;22384;-79
2023/04/03 16:28:06;;;;;;;14.30;5.20;;;;;;;;;;111055;1256;22123;-77
2023/04/03 16:30:33;;;;;;;10.90;4.20;;;;;;;;;;110507;1275;22514;-79
2023/04/03 16:33:00;;;;;;;16.10;5.80;;;;;;;;;;110467;1275;22090;-78
2023/04/03 16:35:27;;;;;;;13.10;4.70;;;;;;;;;;110603;1275;22758;-77
2023/04/03 16:37:54;;;;;;;11.30;4.80;;;;;;;;;;110887;1256;22858;-78
2023/04/03 16:40:20;;;;;;;12.40;5.60;;;;;;;;;;110578;1275;22809;-78
2023/04/03 16:42:47;;;;;;;23.20;11.80;;;;;;;;;;110589;1275;22123;-79
2023/04/03 16:45:14;;;;;;;12.70;5.40;;;;;;;;;;110502;1275;23115;-78
2023/04/03 16:47:41;;;;;;;13.10;4.60;;;;;;;;;;110766;1256;22265;-78
2023/04/03 16:50:08;;;;;;;10.70;3.70;;;;;;;;;;110465;1276;22124;-78
2023/04/03 16:52:35;;;;;;;14.80;5.60;;;;;;;;;;110483;1275;22793;-77
2023/04/03 16:55:02;;;;;;;10.60;3.70;;;;;;;;;;110593;1275;22299;-81
2023/04/03 16:57:29;;;;;;;9.10;3.10;;;;;;;;;;110732;1256;22116;-78
2023/04/03 16:59:56;;;;;;;9.60;2.80;;;;;;;;;;110609;1275;22122;-78
2023/04/03 17:02:27;;;;;;;13.40;4.50;;;;;;;;;;110499;1275;22117;-80
2023/04/03 17:04:54;;;;;;;13.70;5.10;;;;;;;;;;110462;1266;22967;-78
2023/04/03 17:07:30;;;;;;;18.40;7.20;;;;;;;;;;110333;1259;22130;-83
2023/04/03 17:10:12;;;;;;;35.20;13.50;;;;;;;;;;110417;1276;22835;-83
2023/04/03 17:12:42;;;;;;;26.40;12.90;;;;;;;;;;110483;1276;22152;-79
2023/04/03 17:15:10;;;;;;;22.00;10.90;;;;;;;;;;110504;1276;22876;-81
2023/04/03 17:17:37;;;;;;;15.40;7.60;;;;;;;;;;110582;1256;22233;-79
2023/04/03 17:20:04;;;;;;;10.80;4.80;;;;;;;;;;110590;1275;22053;-80